sensor_id;sensor_type;location;lat;lon;timestamp;P1;durP1;ratioP1;P2;durP2;ratioP2
70233;SDS011;75981;42.636;23.376;2024-01-25T00:00:53;12.35;;;5.93;;
70233;SDS011;75981;42.636;23.376;2024-01-25T00:03:18;15.00;;;6.65;;
70233;SDS011;75981;42.636;23.376;2024-01-25T00:05:44;14.57;;;6.63;;
70233;SDS011;75981;42.636;23.376;2024-01-25T00:08:09;13.07;;;7.00;;
70233;SDS011;75981;42.636;23.376;2024-01-25T00:10:34;15.02;;;7.07;;
70233;SDS011;75981;42.636;23.376;2024-01-25T00:13:00;16.42;;;7.72;;
70233;SDS011;75981;42.636;23.376;2024-01-25T00:15:26;14.27;;;7.32;;
70233;SDS011;75981;42.636;23.376;2024-01-25T00:17:52;14.25;;;7.05;;
70233;SDS011;75981;42.636;23.376;2024-01-25T00:20:17;13.07;;;6.55;;
70233;SDS011;75981;42.636;23.376;2024-01-25T00:22:43;14.07;;;7.13;;
70233;SDS011;75981;42.636;23.376;2024-01-25T00:25:08;15.30;;;7.15;;
70233;SDS011;75981;42.636;23.376;2024-01-25T00:27:33;15.48;;;6.90;;
70233;SDS011;75981;42.636;23.376;2024-01-25T00:29:59;16.83;;;6.88;;
70233;SDS011;75981;42.636;23.376;2024-01-25T00:32:25;14.07;;;6.90;;
70233;SDS011;75981;42.636;23.376;2024-01-25T00:34:50;15.05;;;7.47;;
70233;SDS011;75981;42.636;23.376;2024-01-25T00:37:16;15.80;;;6.93;;
70233;SDS011;75981;42.636;23.376;2024-01-25T00:39:42;14.10;;;6.60;;
70233;SDS011;75981;42.636;23.376;2024-01-25T00:42:07;14.73;;;6.60;;
70233;SDS011;75981;42.636;23.376;2024-01-25T00:44:37;13.73;;;6.65;;
70233;SDS011;75981;42.636;23.376;2024-01-25T00:47:03;15.88;;;6.90;;
70233;SDS011;75981;42.636;23.376;2024-01-25T00:49:29;17.17;;;6.57;;
70233;SDS011;75981;42.636;23.376;2024-01-25T00:51:57;14.18;;;6.68;;
70233;SDS011;75981;42.636;23.376;2024-01-25T00:54:25;13.02;;;6.00;;
70233;SDS011;75981;42.636;23.376;2024-01-25T00:56:50;12.00;;;5.47;;
70233;SDS011;75981;42.636;23.376;2024-01-25T00:59:18;14.30;;;6.35;;
70233;SDS011;75981;42.636;23.376;2024-01-25T01:01:44;13.52;;;6.55;;
70233;SDS011;75981;42.636;23.376;2024-01-25T01:04:12;14.73;;;6.88;;
70233;SDS011;75981;42.636;23.376;2024-01-25T01:06:38;16.48;;;7.15;;
70233;SDS011;75981;42.636;23.376;2024-01-25T01:09:03;15.23;;;7.88;;
70233;SDS011;75981;42.636;23.376;2024-01-25T01:11:29;17.50;;;8.68;;
70233;SDS011;75981;42.636;23.376;2024-01-25T01:13:55;17.90;;;9.20;;
70233;SDS011;75981;42.636;23.376;2024-01-25T01:16:20;17.00;;;8.55;;
70233;SDS011;75981;42.636;23.376;2024-01-25T01:18:46;17.95;;;8.27;;
70233;SDS011;75981;42.636;23.376;2024-01-25T01:21:11;15.77;;;8.30;;
70233;SDS011;75981;42.636;23.376;2024-01-25T01:23:37;15.70;;;8.95;;
70233;SDS011;75981;42.636;23.376;2024-01-25T01:26:03;18.48;;;8.82;;
70233;SDS011;75981;42.636;23.376;2024-01-25T01:28:29;17.08;;;8.70;;
70233;SDS011;75981;42.636;23.376;2024-01-25T01:30:55;14.18;;;8.20;;
70233;SDS011;75981;42.636;23.376;2024-01-25T01:33:20;15.90;;;8.40;;
70233;SDS011;75981;42.636;23.376;2024-01-25T01:35:46;16.63;;;8.43;;
70233;SDS011;75981;42.636;23.376;2024-01-25T01:38:11;15.77;;;7.88;;
70233;SDS011;75981;42.636;23.376;2024-01-25T01:40:37;14.98;;;7.88;;
70233;SDS011;75981;42.636;23.376;2024-01-25T01:43:02;17.65;;;7.85;;
70233;SDS011;75981;42.636;23.376;2024-01-25T01:45:28;14.13;;;7.63;;
70233;SDS011;75981;42.636;23.376;2024-01-25T01:47:54;17.60;;;8.35;;
70233;SDS011;75981;42.636;23.376;2024-01-25T01:50:21;15.52;;;8.05;;
70233;SDS011;75981;42.636;23.376;2024-01-25T01:52:46;17.40;;;8.00;;
70233;SDS011;75981;42.636;23.376;2024-01-25T01:55:14;15.25;;;8.63;;
70233;SDS011;75981;42.636;23.376;2024-01-25T01:57:40;15.70;;;8.25;;
70233;SDS011;75981;42.636;23.376;2024-01-25T02:00:06;18.73;;;7.50;;
70233;SDS011;75981;42.636;23.376;2024-01-25T02:02:34;14.77;;;7.88;;
70233;SDS011;75981;42.636;23.376;2024-01-25T02:05:00;15.60;;;7.57;;
70233;SDS011;75981;42.636;23.376;2024-01-25T02:07:26;14.15;;;7.22;;
70233;SDS011;75981;42.636;23.376;2024-01-25T02:09:52;15.98;;;7.93;;
70233;SDS011;75981;42.636;23.376;2024-01-25T02:12:18;15.18;;;7.38;;
70233;SDS011;75981;42.636;23.376;2024-01-25T02:14:43;17.13;;;7.28;;
70233;SDS011;75981;42.636;23.376;2024-01-25T02:17:09;15.82;;;7.32;;
70233;SDS011;75981;42.636;23.376;2024-01-25T02:19:34;16.88;;;7.50;;
70233;SDS011;75981;42.636;23.376;2024-01-25T02:22:00;18.45;;;8.27;;
70233;SDS011;75981;42.636;23.376;2024-01-25T02:24:29;15.27;;;7.68;;
70233;SDS011;75981;42.636;23.376;2024-01-25T02:26:54;13.88;;;7.18;;
70233;SDS011;75981;42.636;23.376;2024-01-25T02:29:20;13.90;;;6.07;;
70233;SDS011;75981;42.636;23.376;2024-01-25T02:31:46;18.13;;;7.25;;
70233;SDS011;75981;42.636;23.376;2024-01-25T02:34:11;15.40;;;7.40;;
70233;SDS011;75981;42.636;23.376;2024-01-25T02:36:36;14.45;;;7.78;;
70233;SDS011;75981;42.636;23.376;2024-01-25T02:39:02;17.35;;;8.63;;
70233;SDS011;75981;42.636;23.376;2024-01-25T02:41:29;16.17;;;7.88;;
70233;SDS011;75981;42.636;23.376;2024-01-25T02:43:55;16.80;;;8.20;;
70233;SDS011;75981;42.636;23.376;2024-01-25T02:46:21;18.30;;;8.55;;
70233;SDS011;75981;42.636;23.376;2024-01-25T02:48:46;15.73;;;8.15;;
70233;SDS011;75981;42.636;23.376;2024-01-25T02:51:12;18.08;;;8.10;;
70233;SDS011;75981;42.636;23.376;2024-01-25T02:53:37;17.70;;;8.27;;
70233;SDS011;75981;42.636;23.376;2024-01-25T02:56:02;16.83;;;8.85;;
70233;SDS011;75981;42.636;23.376;2024-01-25T02:58:28;17.25;;;9.27;;
70233;SDS011;75981;42.636;23.376;2024-01-25T03:00:54;20.02;;;9.10;;
70233;SDS011;75981;42.636;23.376;2024-01-25T03:03:19;17.33;;;8.48;;
70233;SDS011;75981;42.636;23.376;2024-01-25T03:05:45;16.48;;;8.50;;
70233;SDS011;75981;42.636;23.376;2024-01-25T03:08:10;16.90;;;9.18;;
70233;SDS011;75981;42.636;23.376;2024-01-25T03:10:35;19.42;;;8.77;;
70233;SDS011;75981;42.636;23.376;2024-01-25T03:13:01;19.02;;;9.43;;
70233;SDS011;75981;42.636;23.376;2024-01-25T03:15:26;19.17;;;9.77;;
70233;SDS011;75981;42.636;23.376;2024-01-25T03:17:52;15.43;;;6.65;;
70233;SDS011;75981;42.636;23.376;2024-01-25T03:20:17;9.55;;;4.30;;
70233;SDS011;75981;42.636;23.376;2024-01-25T03:22:42;6.35;;;2.20;;
70233;SDS011;75981;42.636;23.376;2024-01-25T03:25:08;3.85;;;1.55;;
70233;SDS011;75981;42.636;23.376;2024-01-25T03:27:35;2.38;;;1.38;;
70233;SDS011;75981;42.636;23.376;2024-01-25T03:30:00;2.22;;;1.27;;
70233;SDS011;75981;42.636;23.376;2024-01-25T03:32:26;3.13;;;1.40;;
70233;SDS011;75981;42.636;23.376;2024-01-25T03:34:51;1.65;;;1.20;;
70233;SDS011;75981;42.636;23.376;2024-01-25T03:37:16;3.58;;;1.40;;
70233;SDS011;75981;42.636;23.376;2024-01-25T03:39:42;2.00;;;1.40;;
70233;SDS011;75981;42.636;23.376;2024-01-25T03:42:08;3.40;;;1.50;;
70233;SDS011;75981;42.636;23.376;2024-01-25T03:44:33;2.47;;;1.40;;
70233;SDS011;75981;42.636;23.376;2024-01-25T03:46:59;1.42;;;1.30;;
70233;SDS011;75981;42.636;23.376;2024-01-25T03:49:24;3.60;;;1.70;;
70233;SDS011;75981;42.636;23.376;2024-01-25T03:51:49;1.55;;;1.30;;
70233;SDS011;75981;42.636;23.376;2024-01-25T03:54:15;2.33;;;1.40;;
70233;SDS011;75981;42.636;23.376;2024-01-25T03:56:41;3.10;;;1.40;;
70233;SDS011;75981;42.636;23.376;2024-01-25T03:59:07;2.67;;;1.50;;
70233;SDS011;75981;42.636;23.376;2024-01-25T04:01:40;2.95;;;1.50;;
70233;SDS011;75981;42.636;23.376;2024-01-25T04:04:06;2.67;;;1.50;;
70233;SDS011;75981;42.636;23.376;2024-01-25T04:06:34;2.38;;;1.38;;
70233;SDS011;75981;42.636;23.376;2024-01-25T04:08:59;2.60;;;1.50;;
70233;SDS011;75981;42.636;23.376;2024-01-25T04:11:25;2.10;;;1.30;;
70233;SDS011;75981;42.636;23.376;2024-01-25T04:13:50;3.30;;;1.50;;
70233;SDS011;75981;42.636;23.376;2024-01-25T04:16:15;3.00;;;1.50;;
70233;SDS011;75981;42.636;23.376;2024-01-25T04:18:41;3.30;;;1.27;;
70233;SDS011;75981;42.636;23.376;2024-01-25T04:21:06;2.15;;;1.30;;
70233;SDS011;75981;42.636;23.376;2024-01-25T04:23:32;2.42;;;1.40;;
70233;SDS011;75981;42.636;23.376;2024-01-25T04:25:57;3.30;;;1.50;;
70233;SDS011;75981;42.636;23.376;2024-01-25T04:28:23;3.47;;;1.55;;
70233;SDS011;75981;42.636;23.376;2024-01-25T04:30:48;3.03;;;1.40;;
70233;SDS011;75981;42.636;23.376;2024-01-25T04:33:13;2.63;;;1.30;;
70233;SDS011;75981;42.636;23.376;2024-01-25T04:35:39;3.90;;;1.55;;
70233;SDS011;75981;42.636;23.376;2024-01-25T04:38:04;2.95;;;1.38;;
70233;SDS011;75981;42.636;23.376;2024-01-25T04:40:30;1.90;;;1.30;;
70233;SDS011;75981;42.636;23.376;2024-01-25T04:42:55;3.90;;;1.45;;
70233;SDS011;75981;42.636;23.376;2024-01-25T04:45:21;4.30;;;1.67;;
70233;SDS011;75981;42.636;23.376;2024-01-25T04:47:46;4.78;;;1.73;;
70233;SDS011;75981;42.636;23.376;2024-01-25T04:50:11;4.47;;;1.90;;
70233;SDS011;75981;42.636;23.376;2024-01-25T04:52:37;5.38;;;1.80;;
70233;SDS011;75981;42.636;23.376;2024-01-25T04:55:02;6.00;;;2.00;;
70233;SDS011;75981;42.636;23.376;2024-01-25T04:57:28;5.13;;;2.00;;
70233;SDS011;75981;42.636;23.376;2024-01-25T04:59:54;6.95;;;2.25;;
70233;SDS011;75981;42.636;23.376;2024-01-25T05:02:19;6.00;;;1.92;;
70233;SDS011;75981;42.636;23.376;2024-01-25T05:04:45;6.47;;;2.10;;
70233;SDS011;75981;42.636;23.376;2024-01-25T05:07:10;4.78;;;2.00;;
70233;SDS011;75981;42.636;23.376;2024-01-25T05:09:35;6.20;;;2.15;;
70233;SDS011;75981;42.636;23.376;2024-01-25T05:12:01;4.55;;;1.88;;
70233;SDS011;75981;42.636;23.376;2024-01-25T05:14:27;6.07;;;2.10;;
70233;SDS011;75981;42.636;23.376;2024-01-25T05:16:52;7.38;;;2.58;;
70233;SDS011;75981;42.636;23.376;2024-01-25T05:19:18;7.00;;;2.30;;
70233;SDS011;75981;42.636;23.376;2024-01-25T05:21:43;4.35;;;1.80;;
70233;SDS011;75981;42.636;23.376;2024-01-25T05:24:08;4.57;;;2.05;;
70233;SDS011;75981;42.636;23.376;2024-01-25T05:26:35;6.80;;;2.20;;
70233;SDS011;75981;42.636;23.376;2024-01-25T05:29:00;5.15;;;1.90;;
70233;SDS011;75981;42.636;23.376;2024-01-25T05:31:26;4.40;;;1.80;;
70233;SDS011;75981;42.636;23.376;2024-01-25T05:33:51;5.18;;;1.90;;
70233;SDS011;75981;42.636;23.376;2024-01-25T05:36:17;4.20;;;1.80;;
70233;SDS011;75981;42.636;23.376;2024-01-25T05:38:42;4.03;;;1.63;;
70233;SDS011;75981;42.636;23.376;2024-01-25T05:41:08;6.18;;;2.17;;
70233;SDS011;75981;42.636;23.376;2024-01-25T05:43:33;3.67;;;1.60;;
70233;SDS011;75981;42.636;23.376;2024-01-25T05:45:58;8.27;;;3.78;;
70233;SDS011;75981;42.636;23.376;2024-01-25T05:48:24;5.07;;;2.40;;
70233;SDS011;75981;42.636;23.376;2024-01-25T05:50:49;5.82;;;1.80;;
70233;SDS011;75981;42.636;23.376;2024-01-25T05:53:15;6.15;;;1.85;;
70233;SDS011;75981;42.636;23.376;2024-01-25T05:55:44;4.13;;;1.70;;
70233;SDS011;75981;42.636;23.376;2024-01-25T05:58:09;3.78;;;1.55;;
70233;SDS011;75981;42.636;23.376;2024-01-25T06:00:34;4.80;;;1.70;;
70233;SDS011;75981;42.636;23.376;2024-01-25T06:03:00;5.25;;;1.85;;
70233;SDS011;75981;42.636;23.376;2024-01-25T06:05:25;4.53;;;1.80;;
70233;SDS011;75981;42.636;23.376;2024-01-25T06:07:51;8.23;;;2.00;;
70233;SDS011;75981;42.636;23.376;2024-01-25T06:10:16;4.82;;;1.90;;
70233;SDS011;75981;42.636;23.376;2024-01-25T06:12:42;5.22;;;1.75;;
70233;SDS011;75981;42.636;23.376;2024-01-25T06:15:07;7.28;;;2.10;;
70233;SDS011;75981;42.636;23.376;2024-01-25T06:17:33;8.23;;;2.00;;
70233;SDS011;75981;42.636;23.376;2024-01-25T06:19:59;6.35;;;2.15;;
70233;SDS011;75981;42.636;23.376;2024-01-25T06:22:24;9.27;;;2.00;;
70233;SDS011;75981;42.636;23.376;2024-01-25T06:24:50;6.18;;;2.00;;
70233;SDS011;75981;42.636;23.376;2024-01-25T06:27:15;4.75;;;1.85;;
70233;SDS011;75981;42.636;23.376;2024-01-25T06:29:40;5.25;;;2.00;;
70233;SDS011;75981;42.636;23.376;2024-01-25T06:32:06;6.00;;;1.90;;
70233;SDS011;75981;42.636;23.376;2024-01-25T06:34:31;7.32;;;1.98;;
70233;SDS011;75981;42.636;23.376;2024-01-25T06:36:57;4.65;;;1.88;;
70233;SDS011;75981;42.636;23.376;2024-01-25T06:39:22;6.55;;;2.03;;
70233;SDS011;75981;42.636;23.376;2024-01-25T06:41:48;7.85;;;2.20;;
70233;SDS011;75981;42.636;23.376;2024-01-25T06:44:13;7.18;;;2.20;;
70233;SDS011;75981;42.636;23.376;2024-01-25T06:46:39;6.78;;;2.42;;
70233;SDS011;75981;42.636;23.376;2024-01-25T06:49:04;10.00;;;2.65;;
70233;SDS011;75981;42.636;23.376;2024-01-25T06:51:29;5.93;;;2.15;;
70233;SDS011;75981;42.636;23.376;2024-01-25T06:53:55;9.68;;;2.70;;
70233;SDS011;75981;42.636;23.376;2024-01-25T06:56:21;7.65;;;2.40;;
70233;SDS011;75981;42.636;23.376;2024-01-25T06:58:46;7.38;;;2.47;;
70233;SDS011;75981;42.636;23.376;2024-01-25T07:01:11;9.10;;;2.28;;
70233;SDS011;75981;42.636;23.376;2024-01-25T07:03:37;6.53;;;2.08;;
70233;SDS011;75981;42.636;23.376;2024-01-25T07:06:03;8.00;;;2.58;;
70233;SDS011;75981;42.636;23.376;2024-01-25T07:08:29;8.23;;;2.40;;
70233;SDS011;75981;42.636;23.376;2024-01-25T07:10:54;8.00;;;2.30;;
70233;SDS011;75981;42.636;23.376;2024-01-25T07:13:21;8.35;;;2.00;;
70233;SDS011;75981;42.636;23.376;2024-01-25T07:15:47;6.07;;;2.13;;
70233;SDS011;75981;42.636;23.376;2024-01-25T07:18:12;8.13;;;2.33;;
70233;SDS011;75981;42.636;23.376;2024-01-25T07:20:38;7.28;;;2.33;;
70233;SDS011;75981;42.636;23.376;2024-01-25T07:23:03;10.20;;;2.40;;
70233;SDS011;75981;42.636;23.376;2024-01-25T07:25:29;12.85;;;2.63;;
70233;SDS011;75981;42.636;23.376;2024-01-25T07:27:54;9.07;;;2.50;;
70233;SDS011;75981;42.636;23.376;2024-01-25T07:30:20;8.90;;;2.42;;
70233;SDS011;75981;42.636;23.376;2024-01-25T07:32:45;8.70;;;2.53;;
70233;SDS011;75981;42.636;23.376;2024-01-25T07:35:11;8.50;;;2.47;;
70233;SDS011;75981;42.636;23.376;2024-01-25T07:37:38;9.20;;;2.50;;
70233;SDS011;75981;42.636;23.376;2024-01-25T07:40:05;7.30;;;2.17;;
70233;SDS011;75981;42.636;23.376;2024-01-25T07:42:31;8.95;;;2.25;;
70233;SDS011;75981;42.636;23.376;2024-01-25T07:44:57;9.30;;;2.50;;
70233;SDS011;75981;42.636;23.376;2024-01-25T07:47:22;7.65;;;2.58;;
70233;SDS011;75981;42.636;23.376;2024-01-25T07:49:48;11.50;;;2.67;;
70233;SDS011;75981;42.636;23.376;2024-01-25T07:52:13;7.25;;;2.30;;
70233;SDS011;75981;42.636;23.376;2024-01-25T07:54:39;9.57;;;2.47;;
70233;SDS011;75981;42.636;23.376;2024-01-25T07:57:04;7.55;;;2.40;;
70233;SDS011;75981;42.636;23.376;2024-01-25T07:59:30;7.90;;;2.40;;
70233;SDS011;75981;42.636;23.376;2024-01-25T08:01:55;7.80;;;2.10;;
70233;SDS011;75981;42.636;23.376;2024-01-25T08:04:21;7.10;;;2.35;;
70233;SDS011;75981;42.636;23.376;2024-01-25T08:06:46;8.55;;;2.17;;
70233;SDS011;75981;42.636;23.376;2024-01-25T08:09:13;10.80;;;2.60;;
70233;SDS011;75981;42.636;23.376;2024-01-25T08:11:39;7.70;;;2.40;;
70233;SDS011;75981;42.636;23.376;2024-01-25T08:14:05;8.63;;;2.45;;
70233;SDS011;75981;42.636;23.376;2024-01-25T08:16:30;10.75;;;2.70;;
70233;SDS011;75981;42.636;23.376;2024-01-25T08:18:56;9.45;;;2.50;;
70233;SDS011;75981;42.636;23.376;2024-01-25T08:21:23;6.65;;;2.55;;
70233;SDS011;75981;42.636;23.376;2024-01-25T08:23:49;7.93;;;2.65;;
70233;SDS011;75981;42.636;23.376;2024-01-25T08:26:14;8.90;;;2.22;;
70233;SDS011;75981;42.636;23.376;2024-01-25T08:28:40;7.35;;;2.70;;
70233;SDS011;75981;42.636;23.376;2024-01-25T08:31:05;9.48;;;3.00;;
70233;SDS011;75981;42.636;23.376;2024-01-25T08:33:31;8.70;;;3.03;;
70233;SDS011;75981;42.636;23.376;2024-01-25T08:35:56;8.02;;;2.42;;
70233;SDS011;75981;42.636;23.376;2024-01-25T08:38:22;7.18;;;2.50;;
70233;SDS011;75981;42.636;23.376;2024-01-25T08:40:47;9.45;;;2.60;;
70233;SDS011;75981;42.636;23.376;2024-01-25T08:43:13;7.30;;;2.47;;
70233;SDS011;75981;42.636;23.376;2024-01-25T08:45:38;8.70;;;2.80;;
70233;SDS011;75981;42.636;23.376;2024-01-25T08:48:04;10.52;;;2.83;;
70233;SDS011;75981;42.636;23.376;2024-01-25T08:50:30;7.45;;;2.60;;
70233;SDS011;75981;42.636;23.376;2024-01-25T08:52:56;7.88;;;2.40;;
70233;SDS011;75981;42.636;23.376;2024-01-25T08:55:21;7.13;;;2.22;;
70233;SDS011;75981;42.636;23.376;2024-01-25T08:57:50;10.20;;;2.40;;
70233;SDS011;75981;42.636;23.376;2024-01-25T09:00:15;7.95;;;2.67;;
70233;SDS011;75981;42.636;23.376;2024-01-25T09:02:41;6.05;;;2.30;;
70233;SDS011;75981;42.636;23.376;2024-01-25T09:05:07;14.43;;;2.78;;
70233;SDS011;75981;42.636;23.376;2024-01-25T09:07:33;10.35;;;2.75;;
70233;SDS011;75981;42.636;23.376;2024-01-25T09:09:59;7.78;;;2.30;;
70233;SDS011;75981;42.636;23.376;2024-01-25T09:12:28;10.52;;;3.38;;
70233;SDS011;75981;42.636;23.376;2024-01-25T09:14:53;9.88;;;2.60;;
70233;SDS011;75981;42.636;23.376;2024-01-25T09:17:18;8.93;;;3.47;;
70233;SDS011;75981;42.636;23.376;2024-01-25T09:19:50;7.82;;;2.42;;
70233;SDS011;75981;42.636;23.376;2024-01-25T09:22:16;7.50;;;2.35;;
70233;SDS011;75981;42.636;23.376;2024-01-25T09:24:46;8.30;;;2.47;;
70233;SDS011;75981;42.636;23.376;2024-01-25T09:27:11;13.10;;;3.55;;
70233;SDS011;75981;42.636;23.376;2024-01-25T09:29:38;7.43;;;2.38;;
70233;SDS011;75981;42.636;23.376;2024-01-25T09:32:05;7.70;;;2.65;;
70233;SDS011;75981;42.636;23.376;2024-01-25T09:34:32;10.15;;;2.88;;
70233;SDS011;75981;42.636;23.376;2024-01-25T09:36:57;11.90;;;3.05;;
70233;SDS011;75981;42.636;23.376;2024-01-25T09:39:23;9.15;;;2.83;;
70233;SDS011;75981;42.636;23.376;2024-01-25T09:41:48;11.73;;;2.83;;
70233;SDS011;75981;42.636;23.376;2024-01-25T09:44:13;10.30;;;2.97;;
70233;SDS011;75981;42.636;23.376;2024-01-25T09:46:39;8.63;;;2.38;;
70233;SDS011;75981;42.636;23.376;2024-01-25T09:49:07;9.55;;;2.70;;
70233;SDS011;75981;42.636;23.376;2024-01-25T09:51:42;11.48;;;2.90;;
70233;SDS011;75981;42.636;23.376;2024-01-25T09:54:08;10.93;;;2.95;;
70233;SDS011;75981;42.636;23.376;2024-01-25T09:56:34;10.95;;;3.13;;
70233;SDS011;75981;42.636;23.376;2024-01-25T09:59:00;9.32;;;2.53;;
70233;SDS011;75981;42.636;23.376;2024-01-25T10:01:26;13.40;;;2.92;;
70233;SDS011;75981;42.636;23.376;2024-01-25T10:03:52;8.98;;;2.90;;
70233;SDS011;75981;42.636;23.376;2024-01-25T10:06:17;12.98;;;3.40;;
70233;SDS011;75981;42.636;23.376;2024-01-25T10:08:43;7.00;;;2.55;;
70233;SDS011;75981;42.636;23.376;2024-01-25T10:11:09;7.38;;;2.60;;
70233;SDS011;75981;42.636;23.376;2024-01-25T10:13:42;10.90;;;3.25;;
70233;SDS011;75981;42.636;23.376;2024-01-25T10:16:12;10.02;;;3.13;;
70233;SDS011;75981;42.636;23.376;2024-01-25T10:18:39;10.55;;;3.50;;
70233;SDS011;75981;42.636;23.376;2024-01-25T10:21:06;8.63;;;3.03;;
70233;SDS011;75981;42.636;23.376;2024-01-25T10:23:34;10.80;;;3.15;;
70233;SDS011;75981;42.636;23.376;2024-01-25T10:25:59;10.23;;;3.28;;
70233;SDS011;75981;42.636;23.376;2024-01-25T10:28:24;9.25;;;3.15;;
70233;SDS011;75981;42.636;23.376;2024-01-25T10:30:51;11.05;;;3.47;;
70233;SDS011;75981;42.636;23.376;2024-01-25T10:33:16;9.93;;;3.05;;
70233;SDS011;75981;42.636;23.376;2024-01-25T10:35:43;10.95;;;3.05;;
70233;SDS011;75981;42.636;23.376;2024-01-25T10:38:15;11.20;;;3.63;;
70233;SDS011;75981;42.636;23.376;2024-01-25T10:40:43;11.48;;;3.17;;
70233;SDS011;75981;42.636;23.376;2024-01-25T10:43:08;11.70;;;3.40;;
70233;SDS011;75981;42.636;23.376;2024-01-25T10:45:36;11.52;;;3.35;;
70233;SDS011;75981;42.636;23.376;2024-01-25T10:48:02;11.43;;;3.63;;
70233;SDS011;75981;42.636;23.376;2024-01-25T10:50:28;9.25;;;3.33;;
70233;SDS011;75981;42.636;23.376;2024-01-25T10:52:53;11.18;;;3.13;;
70233;SDS011;75981;42.636;23.376;2024-01-25T10:55:19;11.75;;;4.00;;
70233;SDS011;75981;42.636;23.376;2024-01-25T10:57:45;9.50;;;3.03;;
70233;SDS011;75981;42.636;23.376;2024-01-25T11:00:11;12.38;;;3.15;;
70233;SDS011;75981;42.636;23.376;2024-01-25T11:02:41;11.85;;;3.70;;
70233;SDS011;75981;42.636;23.376;2024-01-25T11:05:12;8.80;;;3.15;;
70233;SDS011;75981;42.636;23.376;2024-01-25T11:10:18;13.57;;;3.20;;
70233;SDS011;75981;42.636;23.376;2024-01-25T11:13:03;8.93;;;2.92;;
70233;SDS011;75981;42.636;23.376;2024-01-25T11:17:55;10.10;;;2.78;;
70233;SDS011;75981;42.636;23.376;2024-01-25T11:20:22;10.68;;;2.80;;
70233;SDS011;75981;42.636;23.376;2024-01-25T11:22:48;8.98;;;3.00;;
70233;SDS011;75981;42.636;23.376;2024-01-25T11:25:20;10.13;;;2.90;;
70233;SDS011;75981;42.636;23.376;2024-01-25T11:27:46;9.27;;;2.97;;
70233;SDS011;75981;42.636;23.376;2024-01-25T11:30:17;12.00;;;2.97;;
70233;SDS011;75981;42.636;23.376;2024-01-25T11:32:47;9.83;;;2.87;;
70233;SDS011;75981;42.636;23.376;2024-01-25T11:35:13;9.45;;;3.15;;
70233;SDS011;75981;42.636;23.376;2024-01-25T11:37:47;10.45;;;3.20;;
70233;SDS011;75981;42.636;23.376;2024-01-25T11:40:15;9.82;;;2.70;;
70233;SDS011;75981;42.636;23.376;2024-01-25T11:42:43;10.55;;;3.13;;
70233;SDS011;75981;42.636;23.376;2024-01-25T11:45:10;12.02;;;2.80;;
70233;SDS011;75981;42.636;23.376;2024-01-25T11:47:37;9.70;;;2.88;;
70233;SDS011;75981;42.636;23.376;2024-01-25T11:50:04;13.18;;;3.00;;
70233;SDS011;75981;42.636;23.376;2024-01-25T11:52:31;11.63;;;3.15;;
70233;SDS011;75981;42.636;23.376;2024-01-25T11:54:58;7.85;;;2.60;;
70233;SDS011;75981;42.636;23.376;2024-01-25T11:57:37;8.93;;;2.33;;
70233;SDS011;75981;42.636;23.376;2024-01-25T12:00:06;10.27;;;3.05;;
70233;SDS011;75981;42.636;23.376;2024-01-25T12:02:35;15.88;;;3.28;;
70233;SDS011;75981;42.636;23.376;2024-01-25T12:05:02;10.38;;;2.65;;
70233;SDS011;75981;42.636;23.376;2024-01-25T12:07:29;11.77;;;2.92;;
70233;SDS011;75981;42.636;23.376;2024-01-25T12:09:59;12.40;;;4.05;;
70233;SDS011;75981;42.636;23.376;2024-01-25T12:14:50;9.43;;;2.95;;
70233;SDS011;75981;42.636;23.376;2024-01-25T12:17:17;11.07;;;3.08;;
70233;SDS011;75981;42.636;23.376;2024-01-25T12:19:43;7.20;;;2.53;;
70233;SDS011;75981;42.636;23.376;2024-01-25T12:22:08;8.15;;;2.60;;
70233;SDS011;75981;42.636;23.376;2024-01-25T12:24:33;11.02;;;2.72;;
70233;SDS011;75981;42.636;23.376;2024-01-25T12:27:00;11.60;;;2.78;;
70233;SDS011;75981;42.636;23.376;2024-01-25T12:29:25;9.93;;;2.95;;
70233;SDS011;75981;42.636;23.376;2024-01-25T12:31:51;8.70;;;2.42;;
70233;SDS011;75981;42.636;23.376;2024-01-25T12:34:16;10.02;;;2.42;;
70233;SDS011;75981;42.636;23.376;2024-01-25T12:36:42;7.40;;;2.60;;
70233;SDS011;75981;42.636;23.376;2024-01-25T12:39:07;10.70;;;3.40;;
70233;SDS011;75981;42.636;23.376;2024-01-25T12:41:33;9.70;;;2.90;;
70233;SDS011;75981;42.636;23.376;2024-01-25T12:44:00;6.57;;;2.63;;
70233;SDS011;75981;42.636;23.376;2024-01-25T12:46:25;9.13;;;2.55;;
70233;SDS011;75981;42.636;23.376;2024-01-25T12:48:51;8.48;;;2.75;;
70233;SDS011;75981;42.636;23.376;2024-01-25T12:51:20;9.63;;;3.10;;
70233;SDS011;75981;42.636;23.376;2024-01-25T12:53:45;9.80;;;2.72;;
70233;SDS011;75981;42.636;23.376;2024-01-25T12:56:12;8.13;;;2.55;;
70233;SDS011;75981;42.636;23.376;2024-01-25T12:58:37;9.48;;;2.50;;
70233;SDS011;75981;42.636;23.376;2024-01-25T13:01:03;9.57;;;2.60;;
70233;SDS011;75981;42.636;23.376;2024-01-25T13:03:28;11.88;;;2.63;;
70233;SDS011;75981;42.636;23.376;2024-01-25T13:05:54;8.10;;;2.55;;
70233;SDS011;75981;42.636;23.376;2024-01-25T13:08:19;13.20;;;2.65;;
70233;SDS011;75981;42.636;23.376;2024-01-25T13:10:44;8.20;;;2.53;;
70233;SDS011;75981;42.636;23.376;2024-01-25T13:13:10;9.73;;;2.80;;
70233;SDS011;75981;42.636;23.376;2024-01-25T13:15:35;10.23;;;2.60;;
70233;SDS011;75981;42.636;23.376;2024-01-25T13:18:01;10.55;;;2.75;;
70233;SDS011;75981;42.636;23.376;2024-01-25T13:20:26;10.07;;;2.30;;
70233;SDS011;75981;42.636;23.376;2024-01-25T13:22:51;9.35;;;3.20;;
70233;SDS011;75981;42.636;23.376;2024-01-25T13:25:17;9.60;;;2.75;;
70233;SDS011;75981;42.636;23.376;2024-01-25T13:27:42;10.23;;;2.78;;
70233;SDS011;75981;42.636;23.376;2024-01-25T13:30:08;9.50;;;2.55;;
70233;SDS011;75981;42.636;23.376;2024-01-25T13:32:36;7.20;;;2.33;;
70233;SDS011;75981;42.636;23.376;2024-01-25T13:35:02;10.70;;;2.70;;
70233;SDS011;75981;42.636;23.376;2024-01-25T13:37:28;10.98;;;2.83;;
70233;SDS011;75981;42.636;23.376;2024-01-25T13:39:53;9.80;;;2.78;;
70233;SDS011;75981;42.636;23.376;2024-01-25T13:42:19;7.53;;;2.30;;
70233;SDS011;75981;42.636;23.376;2024-01-25T13:44:44;8.93;;;2.80;;
70233;SDS011;75981;42.636;23.376;2024-01-25T13:47:10;9.43;;;2.63;;
70233;SDS011;75981;42.636;23.376;2024-01-25T13:49:35;10.35;;;3.08;;
70233;SDS011;75981;42.636;23.376;2024-01-25T13:52:01;11.02;;;2.70;;
70233;SDS011;75981;42.636;23.376;2024-01-25T13:54:30;11.02;;;3.00;;
70233;SDS011;75981;42.636;23.376;2024-01-25T13:56:55;10.82;;;2.80;;
70233;SDS011;75981;42.636;23.376;2024-01-25T13:59:21;14.20;;;3.17;;
70233;SDS011;75981;42.636;23.376;2024-01-25T14:01:46;9.98;;;2.70;;
70233;SDS011;75981;42.636;23.376;2024-01-25T14:04:12;10.65;;;2.50;;
70233;SDS011;75981;42.636;23.376;2024-01-25T14:06:38;9.50;;;2.85;;
70233;SDS011;75981;42.636;23.376;2024-01-25T14:09:04;10.50;;;3.10;;
70233;SDS011;75981;42.636;23.376;2024-01-25T14:11:30;9.23;;;2.50;;
70233;SDS011;75981;42.636;23.376;2024-01-25T14:13:56;9.70;;;2.67;;
70233;SDS011;75981;42.636;23.376;2024-01-25T14:16:22;10.40;;;3.28;;
70233;SDS011;75981;42.636;23.376;2024-01-25T14:18:48;15.88;;;2.90;;
70233;SDS011;75981;42.636;23.376;2024-01-25T14:21:13;9.85;;;3.05;;
70233;SDS011;75981;42.636;23.376;2024-01-25T14:23:39;10.00;;;2.88;;
70233;SDS011;75981;42.636;23.376;2024-01-25T14:26:04;11.50;;;3.05;;
70233;SDS011;75981;42.636;23.376;2024-01-25T14:28:29;8.85;;;2.72;;